createdAt,value
2022-11-29T00:00:32.029Z,34.00
2022-11-29T00:01:32.030Z,33.60
2022-11-29T00:02:32.052Z,33.10
2022-11-29T00:03:31.980Z,35.60
2022-11-29T00:04:31.967Z,34.30
2022-11-29T00:05:32.007Z,35.20
2022-11-29T00:06:32.022Z,35.50
2022-11-29T00:07:32.057Z,36.40
2022-11-29T00:08:31.917Z,33.80
2022-11-29T00:09:31.901Z,36.90
2022-11-29T00:10:31.901Z,35.40
2022-11-29T00:11:31.871Z,40.80
2022-11-29T00:12:31.889Z,35.40
2022-11-29T00:13:31.911Z,38.30
2022-11-29T00:14:31.965Z,35.90
2022-11-29T00:15:31.825Z,36.60
2022-11-29T00:16:31.909Z,36.80
2022-11-29T00:17:31.819Z,38.50
2022-11-29T00:18:31.862Z,35.70
2022-11-29T00:19:31.798Z,38.10
2022-11-29T00:20:31.817Z,37.90
2022-11-29T00:21:32.788Z,38.50
2022-11-29T00:22:31.787Z,38.60
2022-11-29T00:23:31.743Z,39.70
2022-11-29T00:24:31.786Z,39.10
2022-11-29T00:25:31.728Z,41.10
2022-11-29T00:26:31.724Z,40.30
2022-11-29T00:27:31.747Z,39.20
2022-11-29T00:28:31.789Z,39.80
2022-11-29T00:29:31.696Z,38.20
2022-11-29T00:30:31.749Z,41.90
2022-11-29T00:31:31.672Z,40.40
2022-11-29T00:32:32.579Z,43.60
2022-11-29T00:33:32.597Z,40.10
2022-11-29T00:34:31.761Z,38.00
2022-11-29T00:35:33.196Z,38.40
2022-11-29T00:36:31.603Z,39.50
2022-11-29T00:37:31.622Z,39.60
2022-11-29T00:38:31.585Z,37.70
2022-11-29T00:39:31.558Z,39.30
2022-11-29T00:40:31.607Z,37.50
2022-11-29T00:41:31.545Z,38.30
2022-11-29T00:42:31.532Z,40.00
2022-11-29T00:43:31.521Z,38.40
2022-11-29T00:44:31.512Z,41.40
2022-11-29T00:45:31.537Z,40.20
2022-11-29T00:46:31.497Z,41.30
2022-11-29T00:47:31.474Z,43.30
2022-11-29T00:48:31.463Z,40.70
2022-11-29T00:49:31.479Z,40.80
2022-11-29T00:50:31.475Z,38.80
2022-11-29T00:51:31.425Z,37.50
2022-11-29T00:52:31.431Z,40.70
2022-11-29T00:53:31.468Z,40.80
2022-11-29T00:54:31.394Z,43.50
2022-11-29T00:55:31.409Z,41.70
2022-11-29T00:56:31.367Z,41.20
2022-11-29T00:57:31.350Z,47.00
2022-11-29T00:58:31.355Z,43.20
2022-11-29T00:59:31.327Z,43.30
2022-11-29T01:00:31.362Z,44.60
2022-11-29T01:01:31.472Z,42.10
2022-11-29T01:02:31.423Z,41.90
2022-11-29T01:03:31.290Z,43.60
2022-11-29T01:04:31.293Z,45.60
2022-11-29T01:05:31.266Z,48.40
2022-11-29T01:06:31.316Z,47.10
2022-11-29T01:07:31.351Z,42.10
2022-11-29T01:08:31.242Z,45.40
2022-11-29T01:09:31.225Z,41.00
2022-11-29T01:10:31.273Z,44.70
2022-11-29T01:11:31.279Z,44.50
2022-11-29T01:12:31.200Z,44.70
2022-11-29T01:13:31.166Z,45.60
2022-11-29T01:14:31.169Z,48.50
2022-11-29T01:15:31.144Z,45.40
2022-11-29T01:16:31.300Z,45.60
2022-11-29T01:17:31.124Z,43.40
2022-11-29T01:18:31.124Z,42.40
2022-11-29T01:19:31.095Z,43.60
2022-11-29T01:20:31.163Z,43.00
2022-11-29T01:21:31.124Z,46.10
2022-11-29T01:22:31.152Z,44.50
2022-11-29T01:23:31.065Z,45.00
2022-11-29T01:24:31.061Z,43.60
2022-11-29T01:25:31.222Z,44.10
2022-11-29T01:26:31.032Z,46.00
2022-11-29T01:27:31.098Z,46.20
2022-11-29T01:28:31.011Z,44.30
2022-11-29T01:29:31.024Z,45.10
2022-11-29T01:30:31.014Z,43.10
2022-11-29T01:31:30.968Z,47.30
2022-11-29T01:32:30.967Z,49.20
2022-11-29T01:33:30.944Z,43.70
2022-11-29T01:34:30.979Z,52.00
2022-11-29T01:35:30.924Z,49.40
2022-11-29T01:36:30.929Z,48.00
2022-11-29T01:37:30.897Z,46.20
2022-11-29T01:38:30.955Z,44.70
2022-11-29T01:39:30.921Z,43.20
2022-11-29T01:40:30.895Z,47.50
2022-11-29T01:41:30.855Z,45.30
2022-11-29T01:42:30.912Z,50.10
2022-11-29T01:43:30.838Z,47.70
2022-11-29T01:44:30.873Z,50.60
2022-11-29T01:45:30.811Z,47.80
2022-11-29T01:46:30.885Z,46.20
2022-11-29T01:47:30.781Z,45.30
2022-11-29T01:48:30.797Z,47.80
2022-11-29T01:49:30.806Z,48.80
2022-11-29T01:50:30.863Z,46.90
2022-11-29T01:51:30.763Z,48.40
2022-11-29T01:52:30.745Z,43.20
2022-11-29T01:53:30.722Z,47.00
2022-11-29T01:54:30.763Z,47.40
2022-11-29T01:55:30.775Z,44.60
2022-11-29T01:56:30.699Z,46.00
2022-11-29T01:57:30.669Z,45.80
2022-11-29T01:58:30.683Z,46.00
2022-11-29T01:59:30.694Z,50.30
2022-11-29T02:00:30.650Z,46.20
2022-11-29T02:01:31.783Z,50.10
2022-11-29T02:02:30.682Z,43.50
2022-11-29T02:03:30.656Z,46.40
2022-11-29T02:04:30.654Z,49.30
2022-11-29T02:05:30.589Z,44.40
2022-11-29T02:06:30.591Z,46.50
2022-11-29T02:07:30.652Z,45.90
2022-11-29T02:08:30.611Z,46.00
2022-11-29T02:09:30.564Z,44.40
2022-11-29T02:10:30.543Z,45.40
2022-11-29T02:11:30.542Z,48.10
2022-11-29T02:12:30.770Z,47.30
2022-11-29T02:13:30.524Z,48.10
2022-11-29T02:14:30.504Z,43.60
2022-11-29T02:15:30.518Z,49.90
2022-11-29T02:16:30.488Z,44.20
2022-11-29T02:17:30.450Z,49.10
2022-11-29T02:18:30.629Z,48.40
2022-11-29T02:19:30.429Z,44.60
2022-11-29T02:20:30.490Z,45.40
2022-11-29T02:21:30.403Z,51.30
2022-11-29T02:22:30.405Z,49.00
2022-11-29T02:23:30.383Z,49.00
2022-11-29T02:24:30.391Z,44.80
2022-11-29T02:25:30.393Z,43.90
2022-11-29T02:26:30.372Z,44.50
2022-11-29T02:27:30.344Z,51.30
2022-11-29T02:28:30.417Z,48.80
2022-11-29T02:29:30.328Z,49.50
2022-11-29T02:30:30.423Z,51.60
2022-11-29T02:31:30.344Z,48.10
2022-11-29T02:32:30.318Z,48.70
2022-11-29T02:33:30.285Z,48.10
2022-11-29T02:34:30.283Z,50.20
2022-11-29T02:35:30.308Z,48.20
2022-11-29T02:36:30.252Z,44.60
2022-11-29T02:37:30.221Z,47.00
2022-11-29T02:38:30.237Z,43.80
2022-11-29T02:39:30.290Z,42.00
2022-11-29T02:40:30.187Z,49.40
2022-11-29T02:41:30.196Z,48.30
2022-11-29T02:42:30.229Z,43.70
2022-11-29T02:43:30.179Z,43.90
2022-11-29T02:44:30.145Z,42.20
2022-11-29T02:45:30.193Z,45.60
2022-11-29T02:46:30.180Z,43.70
2022-11-29T02:47:30.135Z,48.40
2022-11-29T02:48:30.107Z,45.60
2022-11-29T02:49:30.143Z,41.70
2022-11-29T02:50:31.077Z,44.40
2022-11-29T02:51:30.084Z,47.00
2022-11-29T02:52:30.056Z,43.20
2022-11-29T02:53:30.073Z,43.90
2022-11-29T02:54:30.081Z,42.30
2022-11-29T02:55:30.043Z,43.00
2022-11-29T02:56:30.013Z,43.80
2022-11-29T02:57:30.008Z,49.00
2022-11-29T02:58:29.988Z,47.80
2022-11-29T02:59:29.995Z,46.40
2022-11-29T03:00:30.007Z,49.50
2022-11-29T03:01:30.021Z,49.30
2022-11-29T03:02:30.047Z,51.10
2022-11-29T03:03:29.941Z,49.70
2022-11-29T03:04:31.112Z,48.80
2022-11-29T03:05:29.963Z,46.80
2022-11-29T03:06:30.001Z,48.60
2022-11-29T03:07:30.083Z,43.90
2022-11-29T03:08:29.879Z,51.40
2022-11-29T03:09:29.886Z,51.60
2022-11-29T03:10:29.896Z,48.10
2022-11-29T03:11:29.859Z,55.90
2022-11-29T03:12:29.833Z,48.40
2022-11-29T03:13:29.876Z,45.00
2022-11-29T03:14:29.805Z,45.90
2022-11-29T03:15:29.910Z,49.60
2022-11-29T03:16:29.790Z,49.90
2022-11-29T03:17:29.852Z,46.30
2022-11-29T03:18:29.767Z,48.50
2022-11-29T03:19:29.768Z,47.20
2022-11-29T03:20:29.770Z,47.50
2022-11-29T03:21:29.846Z,47.20
2022-11-29T03:22:29.723Z,52.00
2022-11-29T03:23:29.729Z,46.50
2022-11-29T03:24:29.759Z,52.00
2022-11-29T03:25:29.784Z,45.50
2022-11-29T03:26:29.692Z,49.30
2022-11-29T03:27:29.746Z,47.60
2022-11-29T03:28:29.658Z,58.10
2022-11-29T03:29:29.670Z,50.60
2022-11-29T03:30:29.646Z,46.20
2022-11-29T03:31:29.696Z,53.00
2022-11-29T03:32:29.612Z,49.50
2022-11-29T03:33:29.644Z,46.90
2022-11-29T03:34:29.639Z,49.60
2022-11-29T03:35:29.678Z,50.60
2022-11-29T03:36:29.564Z,47.80
2022-11-29T03:37:29.616Z,49.90
2022-11-29T03:38:29.557Z,46.90
2022-11-29T03:39:29.553Z,47.10
2022-11-29T03:40:29.569Z,46.80
2022-11-29T03:41:29.527Z,52.60
2022-11-29T03:42:29.534Z,48.10
2022-11-29T03:43:29.510Z,47.30
2022-11-29T03:44:29.490Z,54.80
2022-11-29T03:45:29.483Z,49.90
2022-11-29T03:46:29.492Z,45.90
2022-11-29T03:47:29.450Z,59.40
2022-11-29T03:48:29.477Z,48.00
2022-11-29T03:49:29.439Z,50.30
2022-11-29T03:50:29.416Z,46.80
2022-11-29T03:51:30.106Z,50.70
2022-11-29T03:52:29.383Z,54.60
2022-11-29T03:53:30.071Z,50.00
2022-11-29T03:54:29.370Z,48.80
2022-11-29T03:55:29.409Z,50.00
2022-11-29T03:56:29.386Z,52.30
2022-11-29T03:57:29.355Z,48.30
2022-11-29T03:58:30.059Z,47.40
2022-11-29T03:59:29.360Z,52.00
2022-11-29T04:00:29.341Z,52.70
2022-11-29T04:01:29.344Z,51.30
2022-11-29T04:02:29.386Z,53.20
2022-11-29T04:03:29.277Z,50.80
2022-11-29T04:04:29.258Z,47.20
2022-11-29T04:05:29.260Z,45.90
2022-11-29T04:06:29.263Z,55.00
2022-11-29T04:07:29.243Z,52.90
2022-11-29T04:08:29.217Z,48.70
2022-11-29T04:09:29.214Z,49.00
2022-11-29T04:10:29.188Z,60.50
2022-11-29T04:11:29.232Z,55.30
2022-11-29T04:12:29.160Z,53.00
2022-11-29T04:13:29.161Z,51.50
2022-11-29T04:14:29.142Z,52.00
2022-11-29T04:15:29.191Z,46.30
2022-11-29T04:16:29.155Z,58.40
2022-11-29T04:17:29.170Z,59.20
2022-11-29T04:18:29.092Z,52.00
2022-11-29T04:19:29.112Z,45.20
2022-11-29T04:20:29.082Z,58.90
2022-11-29T04:21:29.077Z,54.50
2022-11-29T04:22:29.140Z,46.70
2022-11-29T04:23:29.054Z,52.10
2022-11-29T04:24:29.095Z,44.80
2022-11-29T04:25:29.037Z,51.20
2022-11-29T04:26:34.667Z,51.40
2022-11-29T04:27:29.051Z,49.60
2022-11-29T04:28:28.981Z,44.50
2022-11-29T04:29:28.987Z,43.10
2022-11-29T04:30:28.977Z,47.40
2022-11-29T04:31:29.039Z,46.50
2022-11-29T04:32:29.036Z,47.70
2022-11-29T04:33:28.964Z,43.90
2022-11-29T04:34:28.926Z,42.20
2022-11-29T04:35:28.953Z,47.90
2022-11-29T04:36:28.904Z,43.00
2022-11-29T04:37:28.944Z,44.00
2022-11-29T04:38:28.878Z,39.80
2022-11-29T04:39:28.871Z,46.00
2022-11-29T04:40:28.933Z,44.30
2022-11-29T04:41:28.862Z,45.10
2022-11-29T04:42:28.903Z,38.50
2022-11-29T04:43:28.834Z,40.30
2022-11-29T04:44:28.984Z,41.50
2022-11-29T04:45:28.851Z,41.20
2022-11-29T04:46:28.825Z,43.60
2022-11-29T04:47:28.789Z,41.70
2022-11-29T04:48:28.833Z,38.00
2022-11-29T04:49:28.806Z,43.10
2022-11-29T04:50:28.749Z,39.40
2022-11-29T04:51:28.743Z,39.20
2022-11-29T04:52:28.716Z,37.70
2022-11-29T04:53:28.730Z,39.00
2022-11-29T04:54:28.731Z,41.20
2022-11-29T04:55:31.055Z,43.40
2022-11-29T04:56:28.707Z,42.90
2022-11-29T04:57:28.677Z,39.60
2022-11-29T04:58:28.662Z,42.40
2022-11-29T04:59:28.669Z,37.70
2022-11-29T05:00:28.714Z,42.30
2022-11-29T05:01:28.656Z,40.80
2022-11-29T05:02:28.673Z,38.20
2022-11-29T05:03:28.611Z,41.40
2022-11-29T05:04:28.582Z,39.40
2022-11-29T05:05:28.593Z,40.90
2022-11-29T05:06:28.560Z,41.20
2022-11-29T05:07:28.630Z,42.00
2022-11-29T05:08:28.540Z,41.10
2022-11-29T05:09:28.547Z,41.70
2022-11-29T05:10:28.524Z,38.10
2022-11-29T05:11:28.520Z,39.50
2022-11-29T05:12:28.536Z,37.40
2022-11-29T05:13:28.496Z,36.70
2022-11-29T05:14:28.490Z,36.40
2022-11-29T05:15:28.535Z,40.10
2022-11-29T05:16:28.518Z,40.00
2022-11-29T05:17:28.489Z,41.50
2022-11-29T05:18:28.469Z,40.00
2022-11-29T05:19:28.428Z,35.20
2022-11-29T05:20:28.402Z,34.90
2022-11-29T05:21:28.408Z,36.70
2022-11-29T05:22:28.429Z,35.90
2022-11-29T05:23:28.422Z,35.20
2022-11-29T05:24:28.366Z,39.10
2022-11-29T05:25:28.376Z,35.90
2022-11-29T05:26:28.340Z,34.10
2022-11-29T05:27:28.338Z,33.70
2022-11-29T05:28:28.360Z,33.70
2022-11-29T05:29:28.322Z,34.20
2022-11-29T05:30:28.302Z,33.30
2022-11-29T05:31:28.371Z,34.70
2022-11-29T05:32:28.339Z,33.50
2022-11-29T05:33:28.316Z,32.40
2022-11-29T05:34:34.501Z,31.80
2022-11-29T05:35:28.313Z,30.10
2022-11-29T05:36:28.277Z,30.50
2022-11-29T05:37:28.228Z,30.60
2022-11-29T05:38:28.208Z,30.90
2022-11-29T05:39:28.251Z,29.40
2022-11-29T05:40:28.185Z,33.70
2022-11-29T05:41:28.192Z,31.10
2022-11-29T05:42:28.193Z,30.70
2022-11-29T05:43:28.163Z,28.20
2022-11-29T05:44:28.135Z,28.30
2022-11-29T05:45:28.143Z,29.00
2022-11-29T05:46:28.431Z,27.80
2022-11-29T05:47:31.322Z,27.60
2022-11-29T05:48:28.128Z,28.20
2022-11-29T05:49:28.098Z,28.80
2022-11-29T05:50:28.074Z,29.50
2022-11-29T05:51:28.095Z,25.40
2022-11-29T05:52:28.135Z,26.80
2022-11-29T05:53:28.060Z,26.80
2022-11-29T05:54:28.036Z,27.10
2022-11-29T05:55:28.040Z,26.50
2022-11-29T05:56:28.012Z,25.90
2022-11-29T05:57:28.066Z,25.20
2022-11-29T05:58:30.492Z,26.40
2022-11-29T05:59:28.004Z,25.90
2022-11-29T06:00:27.970Z,24.70
2022-11-29T06:01:27.956Z,24.90
2022-11-29T06:02:28.073Z,26.30
2022-11-29T06:03:27.992Z,26.40
2022-11-29T06:04:27.966Z,24.30
2022-11-29T06:05:27.917Z,24.10
2022-11-29T06:06:27.891Z,25.20
2022-11-29T06:07:28.176Z,24.20
2022-11-29T06:08:27.956Z,23.10
2022-11-29T06:09:27.914Z,23.70
2022-11-29T06:10:27.850Z,24.10
2022-11-29T06:11:27.876Z,24.20
2022-11-29T06:12:27.825Z,23.40
2022-11-29T06:13:27.840Z,23.60
2022-11-29T06:14:27.893Z,22.10
2022-11-29T06:15:27.863Z,24.30
2022-11-29T06:16:27.865Z,23.30
2022-11-29T06:17:27.786Z,23.10
2022-11-29T06:18:27.825Z,24.20
2022-11-29T06:19:27.814Z,23.50
2022-11-29T06:20:27.853Z,24.60
2022-11-29T06:21:27.751Z,23.20
2022-11-29T06:22:27.778Z,24.30
2022-11-29T06:23:27.733Z,23.00
2022-11-29T06:24:27.721Z,23.30
2022-11-29T06:25:27.752Z,23.80
2022-11-29T06:26:27.686Z,25.20
2022-11-29T06:27:27.722Z,24.20
2022-11-29T06:28:27.670Z,23.70
2022-11-29T06:29:33.708Z,22.20
2022-11-29T06:30:33.630Z,23.00
2022-11-29T06:31:33.731Z,22.90
2022-11-29T06:32:27.798Z,23.60
2022-11-29T06:33:27.599Z,24.60
2022-11-29T06:34:30.662Z,22.80
2022-11-29T06:35:27.590Z,23.10
2022-11-29T06:36:27.588Z,22.20
2022-11-29T06:37:27.568Z,23.90
2022-11-29T06:38:27.654Z,22.20
2022-11-29T06:39:27.554Z,22.90
2022-11-29T06:40:27.588Z,22.30
2022-11-29T06:41:27.514Z,24.20
2022-11-29T06:42:27.529Z,23.20
2022-11-29T06:43:27.563Z,24.20
2022-11-29T06:44:27.567Z,24.90
2022-11-29T06:45:27.526Z,25.00
2022-11-29T06:46:27.753Z,24.70
2022-11-29T06:47:28.093Z,24.10
2022-11-29T06:48:27.432Z,23.90
2022-11-29T06:49:27.422Z,23.80
2022-11-29T06:50:27.532Z,22.90
2022-11-29T06:51:27.465Z,22.40
2022-11-29T06:52:27.392Z,22.10
2022-11-29T06:53:27.383Z,22.60
2022-11-29T06:54:27.447Z,22.70
2022-11-29T06:55:27.345Z,23.80
2022-11-29T06:56:27.390Z,22.40
2022-11-29T06:57:27.380Z,23.40
2022-11-29T06:58:31.461Z,21.80
2022-11-29T06:59:27.366Z,22.90
2022-11-29T07:00:27.404Z,21.60
2022-11-29T07:01:27.391Z,21.80
2022-11-29T07:02:27.373Z,21.70
2022-11-29T07:03:27.310Z,21.70
2022-11-29T07:04:27.293Z,21.20
2022-11-29T07:05:27.274Z,20.50
2022-11-29T07:06:27.303Z,20.70
2022-11-29T07:07:27.322Z,20.40
2022-11-29T07:08:27.211Z,21.70
2022-11-29T07:09:27.273Z,21.30
2022-11-29T07:10:27.325Z,21.60
2022-11-29T07:11:27.230Z,22.40
2022-11-29T07:12:27.176Z,21.60
2022-11-29T07:13:27.184Z,22.20
2022-11-29T07:14:27.149Z,22.80
2022-11-29T07:15:27.259Z,21.90
2022-11-29T07:16:27.194Z,20.70
2022-11-29T07:17:27.202Z,22.10
2022-11-29T07:18:27.129Z,22.70
2022-11-29T07:19:27.080Z,22.90
2022-11-29T07:20:27.280Z,22.50
2022-11-29T07:21:27.099Z,23.20
2022-11-29T07:22:27.086Z,25.00
2022-11-29T07:23:27.057Z,24.10
2022-11-29T07:24:27.079Z,24.70
2022-11-29T07:25:27.112Z,25.50
2022-11-29T07:26:27.013Z,24.90
2022-11-29T07:27:26.977Z,25.50
2022-11-29T07:28:27.140Z,25.20
2022-11-29T07:29:27.028Z,24.80
2022-11-29T07:30:27.033Z,23.80
2022-11-29T07:31:26.962Z,24.20
2022-11-29T07:32:27.084Z,24.00
2022-11-29T07:33:27.026Z,23.30
2022-11-29T07:34:26.936Z,23.30
2022-11-29T07:35:26.896Z,23.30
2022-11-29T07:36:26.921Z,22.30
2022-11-29T07:37:26.926Z,24.40
2022-11-29T07:38:26.898Z,21.90
2022-11-29T07:39:26.977Z,21.40
2022-11-29T07:40:26.929Z,20.80
2022-11-29T07:41:26.842Z,21.30
2022-11-29T07:42:27.366Z,20.40
2022-11-29T07:43:26.857Z,19.60
2022-11-29T07:44:26.939Z,20.00
2022-11-29T07:45:26.956Z,19.20
2022-11-29T07:46:26.866Z,18.70
2022-11-29T07:47:30.111Z,19.40
2022-11-29T07:48:26.810Z,19.30
2022-11-29T07:49:26.830Z,19.30
2022-11-29T07:50:26.935Z,19.50
2022-11-29T07:51:26.752Z,18.00
2022-11-29T07:52:26.743Z,18.80
2022-11-29T07:53:26.783Z,18.50
2022-11-29T07:54:26.783Z,17.50
2022-11-29T07:55:26.711Z,17.30
2022-11-29T07:56:26.714Z,17.30
2022-11-29T07:57:26.647Z,17.50
2022-11-29T07:58:26.754Z,17.80
2022-11-29T07:59:26.688Z,17.00
2022-11-29T08:00:26.675Z,18.00
2022-11-29T08:01:26.656Z,17.00
2022-11-29T08:02:26.647Z,17.80
2022-11-29T08:03:26.625Z,16.40
2022-11-29T08:04:26.586Z,17.10
2022-11-29T08:05:26.612Z,16.40
2022-11-29T08:06:26.558Z,17.10
2022-11-29T08:07:26.595Z,15.90
2022-11-29T08:08:26.597Z,16.60
2022-11-29T08:09:26.520Z,15.60
2022-11-29T08:10:26.522Z,16.50
2022-11-29T08:11:26.486Z,16.80
2022-11-29T08:12:26.545Z,17.30
2022-11-29T08:13:26.523Z,18.10
2022-11-29T08:14:26.507Z,21.60
2022-11-29T08:15:26.472Z,21.80
2022-11-29T08:16:26.551Z,21.30
2022-11-29T08:17:26.431Z,22.50
2022-11-29T08:18:26.510Z,21.90
2022-11-29T08:19:26.405Z,22.20
2022-11-29T08:20:26.433Z,22.70
2022-11-29T08:21:26.389Z,21.80
2022-11-29T08:22:26.414Z,24.10
2022-11-29T08:23:26.396Z,21.80
2022-11-29T08:24:26.394Z,23.50
2022-11-29T08:25:26.361Z,22.50
2022-11-29T08:26:31.268Z,22.80
2022-11-29T08:27:26.410Z,23.60
2022-11-29T08:28:26.335Z,21.50
2022-11-29T08:29:26.300Z,22.60
2022-11-29T08:30:26.382Z,21.20
2022-11-29T08:31:26.306Z,19.90
2022-11-29T08:32:26.364Z,20.50
2022-11-29T08:33:26.280Z,20.10
2022-11-29T08:34:26.264Z,20.40
2022-11-29T08:35:26.228Z,20.80
2022-11-29T08:36:26.232Z,19.60
2022-11-29T08:37:26.257Z,19.90
2022-11-29T08:38:27.229Z,18.50
2022-11-29T08:39:27.088Z,19.40
2022-11-29T08:40:26.198Z,19.70
2022-11-29T08:41:26.399Z,20.30
2022-11-29T08:42:26.220Z,19.20
2022-11-29T08:43:26.159Z,18.40
2022-11-29T08:44:26.142Z,18.10
2022-11-29T08:45:26.259Z,17.30
2022-11-29T08:46:26.215Z,16.50
2022-11-29T08:47:26.111Z,15.80
2022-11-29T08:48:26.116Z,16.40
2022-11-29T08:49:26.085Z,16.70
2022-11-29T08:50:26.192Z,16.80
2022-11-29T08:51:26.050Z,17.10
2022-11-29T08:52:26.057Z,18.20
2022-11-29T08:53:26.021Z,18.30
2022-11-29T08:54:26.044Z,17.70
2022-11-29T08:55:26.031Z,17.40
2022-11-29T08:57:16.592Z,17.50
2022-11-29T08:57:40.449Z,16.70
2022-11-29T08:58:26.052Z,16.70
2022-11-29T08:59:25.999Z,15.70
2022-11-29T09:00:26.003Z,17.00
2022-11-29T09:01:26.068Z,15.70
2022-11-29T09:02:25.989Z,16.20
2022-11-29T09:03:25.928Z,16.10
2022-11-29T09:04:25.979Z,16.30
2022-11-29T09:05:25.896Z,15.50
2022-11-29T09:06:25.907Z,16.10
2022-11-29T09:07:26.050Z,15.90
2022-11-29T09:08:26.034Z,15.20
2022-11-29T09:09:25.899Z,15.70
2022-11-29T09:10:26.648Z,14.90
2022-11-29T09:11:25.881Z,14.90
2022-11-29T09:12:25.979Z,16.00
2022-11-29T09:13:25.927Z,16.30
2022-11-29T09:14:25.868Z,16.00
2022-11-29T09:15:25.868Z,16.10
2022-11-29T09:16:25.987Z,15.60
2022-11-29T09:17:26.150Z,16.10
2022-11-29T09:18:25.852Z,16.60
2022-11-29T09:19:25.869Z,16.30
2022-11-29T09:20:25.794Z,16.50
2022-11-29T09:21:25.806Z,16.50
2022-11-29T09:22:25.777Z,17.00
2022-11-29T09:23:25.759Z,16.30
2022-11-29T09:24:25.849Z,16.90
2022-11-29T09:25:25.801Z,17.60
2022-11-29T09:26:25.789Z,16.80
2022-11-29T09:27:25.758Z,17.10
2022-11-29T09:28:26.177Z,17.00
2022-11-29T09:29:25.734Z,17.10
2022-11-29T09:30:25.763Z,17.30
2022-11-29T09:31:25.764Z,18.20
2022-11-29T09:32:25.850Z,18.00
2022-11-29T09:33:25.707Z,19.10
2022-11-29T09:34:25.752Z,18.60
2022-11-29T09:35:25.727Z,19.10
2022-11-29T09:36:28.722Z,18.10
2022-11-29T09:37:25.641Z,18.80
2022-11-29T09:38:25.659Z,19.10
2022-11-29T09:39:25.948Z,19.90
2022-11-29T09:40:25.607Z,20.00
2022-11-29T09:41:25.618Z,19.30
2022-11-29T09:42:25.601Z,19.10
2022-11-29T09:43:25.610Z,19.80
2022-11-29T09:44:25.599Z,19.70
2022-11-29T09:45:25.607Z,20.70
2022-11-29T09:46:25.527Z,19.20
2022-11-29T09:47:25.556Z,19.20
2022-11-29T09:48:25.495Z,19.80
2022-11-29T09:49:25.575Z,19.00
2022-11-29T09:50:25.500Z,20.50
2022-11-29T09:51:25.395Z,21.20
2022-11-29T09:52:26.684Z,19.70
2022-11-29T09:53:25.601Z,20.10
2022-11-29T09:54:25.389Z,19.90
2022-11-29T09:55:26.249Z,19.60
2022-11-29T09:56:25.749Z,18.30
2022-11-29T09:57:25.378Z,18.50
2022-11-29T09:58:25.346Z,18.90
2022-11-29T09:59:25.337Z,19.10
2022-11-29T10:00:25.365Z,19.70
2022-11-29T10:01:25.362Z,19.20
2022-11-29T10:02:25.432Z,19.20
2022-11-29T10:03:25.550Z,19.10
2022-11-29T10:04:25.340Z,19.90
2022-11-29T10:05:25.283Z,19.80
2022-11-29T10:06:25.311Z,19.90
2022-11-29T10:07:25.396Z,19.70
2022-11-29T10:08:25.352Z,19.50
2022-11-29T10:09:27.442Z,20.30
2022-11-29T10:10:25.350Z,20.40
2022-11-29T10:11:25.820Z,20.30
2022-11-29T10:12:26.334Z,20.50
2022-11-29T10:13:25.372Z,20.70
2022-11-29T10:14:25.286Z,20.40
2022-11-29T10:15:25.392Z,21.20
2022-11-29T10:16:25.251Z,20.20
2022-11-29T10:17:25.241Z,20.70
2022-11-29T10:18:25.250Z,19.90
2022-11-29T10:19:25.140Z,19.80
2022-11-29T10:20:25.143Z,20.50
2022-11-29T10:21:25.237Z,21.70
2022-11-29T10:22:25.184Z,20.60
2022-11-29T10:23:25.348Z,19.80
2022-11-29T10:24:25.219Z,19.70
2022-11-29T10:25:25.285Z,19.70
2022-11-29T10:26:28.199Z,20.90
2022-11-29T10:27:25.726Z,21.40
2022-11-29T10:28:25.109Z,20.80
2022-11-29T10:29:24.989Z,22.10
2022-11-29T10:30:25.237Z,21.90
2022-11-29T10:31:25.492Z,22.10
2022-11-29T10:32:25.796Z,21.40
2022-11-29T10:33:24.956Z,20.50
2022-11-29T10:34:25.179Z,21.20
2022-11-29T10:35:25.039Z,21.30
2022-11-29T10:36:24.972Z,21.30
2022-11-29T10:37:25.046Z,21.20
2022-11-29T10:38:32.508Z,22.80
2022-11-29T10:39:25.127Z,22.80
2022-11-29T10:40:24.922Z,23.50
2022-11-29T10:41:26.700Z,23.60
2022-11-29T10:42:24.926Z,23.70
2022-11-29T10:43:24.882Z,24.10
2022-11-29T10:44:25.138Z,23.80
2022-11-29T10:45:24.884Z,23.70
2022-11-29T10:46:24.863Z,24.10
2022-11-29T10:47:24.778Z,23.10
2022-11-29T10:48:25.009Z,22.70
2022-11-29T10:49:24.808Z,23.10
2022-11-29T10:50:24.921Z,23.30
2022-11-29T10:51:24.726Z,22.90
2022-11-29T10:52:24.783Z,23.00
2022-11-29T10:53:24.714Z,23.20
2022-11-29T10:54:24.758Z,22.00
2022-11-29T10:55:24.723Z,21.70
2022-11-29T10:56:25.625Z,22.20
2022-11-29T10:57:24.710Z,22.40
2022-11-29T10:58:28.057Z,23.30
2022-11-29T10:59:24.688Z,22.40
2022-11-29T11:00:25.280Z,22.80
2022-11-29T11:01:24.820Z,21.90
2022-11-29T11:02:24.705Z,22.50
2022-11-29T11:03:24.638Z,22.20
2022-11-29T11:04:24.572Z,22.10
2022-11-29T11:05:24.806Z,22.20
2022-11-29T11:06:24.598Z,21.80
2022-11-29T11:07:24.783Z,20.10
2022-11-29T11:08:24.561Z,21.50
2022-11-29T11:09:24.596Z,20.40
2022-11-29T11:10:24.623Z,21.80
2022-11-29T11:11:25.137Z,21.90
2022-11-29T11:12:24.525Z,22.40
2022-11-29T11:13:24.558Z,21.00
2022-11-29T11:14:24.542Z,21.60
2022-11-29T11:15:24.725Z,21.80
2022-11-29T11:16:24.589Z,21.40
2022-11-29T11:17:28.298Z,22.40
2022-11-29T11:18:24.603Z,22.50
2022-11-29T11:19:24.523Z,21.90
2022-11-29T11:20:25.226Z,22.50
2022-11-29T11:21:24.489Z,22.40
2022-11-29T11:22:24.514Z,22.20
2022-11-29T11:23:24.439Z,21.20
2022-11-29T11:24:24.410Z,22.30
2022-11-29T11:25:25.481Z,22.50
2022-11-29T11:26:27.080Z,22.60
2022-11-29T11:27:26.257Z,22.10
2022-11-29T11:28:24.401Z,23.30
2022-11-29T11:29:24.361Z,21.70
2022-11-29T11:30:24.299Z,21.50
2022-11-29T11:31:24.415Z,21.50
2022-11-29T11:32:24.298Z,22.10
2022-11-29T11:33:24.315Z,21.10
2022-11-29T11:34:24.386Z,21.30
2022-11-29T11:35:24.280Z,21.90
2022-11-29T11:36:24.229Z,22.80
2022-11-29T11:37:24.279Z,23.20
2022-11-29T11:38:30.258Z,22.80
2022-11-29T11:39:24.266Z,23.20
2022-11-29T11:40:24.342Z,22.80
2022-11-29T11:41:24.228Z,22.20
2022-11-29T11:42:24.309Z,22.30
2022-11-29T11:43:24.215Z,22.80
2022-11-29T11:44:46.464Z,22.00
2022-11-29T11:45:24.189Z,22.50
2022-11-29T11:46:24.279Z,24.10
2022-11-29T11:47:24.167Z,22.40
2022-11-29T11:48:24.160Z,22.90
2022-11-29T11:49:24.302Z,22.60
2022-11-29T11:50:24.131Z,22.30
2022-11-29T11:51:24.141Z,21.50
2022-11-29T11:52:24.677Z,22.70
2022-11-29T11:53:24.073Z,22.00
2022-11-29T11:54:24.140Z,20.00
2022-11-29T11:55:24.091Z,20.90
2022-11-29T11:56:24.090Z,21.00
2022-11-29T11:57:24.087Z,22.20
2022-11-29T11:58:24.139Z,21.70
2022-11-29T11:59:23.987Z,22.40
2022-11-29T12:00:47.734Z,22.30
2022-11-29T12:01:23.990Z,23.00
2022-11-29T12:02:24.056Z,22.50
2022-11-29T12:03:24.673Z,22.90
2022-11-29T12:04:24.072Z,21.10
2022-11-29T12:05:24.544Z,21.40
2022-11-29T12:06:23.992Z,21.00
2022-11-29T12:07:38.934Z,21.60
2022-11-29T12:08:24.176Z,24.60
2022-11-29T12:09:25.941Z,23.20
2022-11-29T12:10:24.878Z,23.50
2022-11-29T12:11:23.899Z,23.50
2022-11-29T12:12:24.119Z,23.10
2022-11-29T12:13:23.849Z,23.80
2022-11-29T12:14:24.135Z,23.30
2022-11-29T12:15:23.802Z,24.60
2022-11-29T12:16:23.930Z,24.20
2022-11-29T12:17:24.644Z,23.10
2022-11-29T12:18:25.505Z,23.40
2022-11-29T12:19:23.801Z,23.50
2022-11-29T12:20:23.727Z,26.60
2022-11-29T12:21:25.431Z,27.10
2022-11-29T12:22:23.746Z,27.10
2022-11-29T12:23:23.748Z,26.70
2022-11-29T12:24:23.733Z,27.80
2022-11-29T12:25:23.863Z,27.70
2022-11-29T12:26:55.473Z,29.20
2022-11-29T12:27:23.765Z,27.50
2022-11-29T12:28:23.784Z,30.90
2022-11-29T12:29:23.709Z,27.80
2022-11-29T12:30:23.785Z,29.80
2022-11-29T12:31:23.807Z,29.90
2022-11-29T12:32:24.206Z,28.80
2022-11-29T12:33:23.602Z,29.40
2022-11-29T12:34:23.998Z,29.00
2022-11-29T12:35:24.250Z,28.80
2022-11-29T12:36:23.733Z,29.40
2022-11-29T12:37:23.613Z,29.10
2022-11-29T12:38:23.606Z,30.30
2022-11-29T12:39:23.678Z,31.20
2022-11-29T12:40:23.645Z,29.30
2022-11-29T12:41:23.608Z,29.40
2022-11-29T12:42:23.506Z,29.50
2022-11-29T12:43:23.599Z,29.80
2022-11-29T12:44:23.517Z,29.90
2022-11-29T12:45:23.518Z,29.80
2022-11-29T12:46:23.562Z,29.30
2022-11-29T12:47:39.625Z,30.80
2022-11-29T12:48:23.704Z,29.70
2022-11-29T12:49:23.693Z,28.80
2022-11-29T12:50:23.466Z,30.10
2022-11-29T12:51:23.496Z,28.80
2022-11-29T12:52:23.553Z,30.60